createdAt,value
2017-11-07T00:01:01.378Z,4.27
2017-11-07T00:02:13.998Z,4.27
2017-11-07T00:03:26.249Z,4.27
2017-11-07T00:04:38.536Z,4.25
2017-11-07T00:05:50.827Z,4.31
2017-11-07T00:07:03.484Z,4.22
2017-11-07T00:08:15.756Z,4.28
2017-11-07T00:09:28.367Z,4.24
2017-11-07T00:10:40.644Z,4.22
2017-11-07T00:11:52.904Z,4.31
2017-11-07T00:13:05.517Z,4.27
2017-11-07T00:14:18.115Z,4.25
2017-11-07T00:15:30.706Z,4.21
2017-11-07T00:16:43.302Z,4.24
2017-11-07T00:17:55.918Z,4.3
2017-11-07T00:19:08.541Z,4.18
2017-11-07T00:20:20.825Z,4.25
2017-11-07T00:21:33.120Z,4.32
2017-11-07T00:22:45.702Z,4.32
2017-11-07T00:23:57.999Z,4.31
2017-11-07T00:25:10.608Z,4.31
2017-11-07T00:26:22.890Z,4.38
2017-11-07T00:27:35.491Z,4.25
2017-11-07T00:28:48.131Z,4.27
2017-11-07T00:30:00.427Z,4.34
2017-11-07T00:31:13.070Z,4.28
2017-11-07T00:32:25.664Z,4.34
2017-11-07T00:33:37.963Z,4.36
2017-11-07T00:34:50.608Z,4.28
2017-11-07T00:36:02.577Z,4.3
2017-11-07T00:37:14.525Z,4.4
2017-11-07T00:38:27.154Z,4.34
2017-11-07T00:39:39.758Z,4.32
2017-11-07T00:40:52.065Z,4.34
2017-11-07T00:42:04.359Z,4.4
2017-11-07T00:43:16.321Z,4.34
2017-11-07T00:44:28.949Z,4.4
2017-11-07T00:45:41.224Z,4.4
2017-11-07T00:46:53.815Z,4.39
2017-11-07T00:48:06.103Z,4.28
2017-11-07T00:49:18.723Z,4.42
2017-11-07T00:50:31.001Z,4.42
2017-11-07T00:51:43.294Z,4.45
2017-11-07T00:52:55.286Z,4.43
2017-11-07T00:54:07.918Z,4.4
2017-11-07T00:55:20.207Z,4.28
2017-11-07T00:56:32.819Z,4.42
2017-11-07T00:57:45.426Z,4.34
2017-11-07T00:58:58.022Z,4.43
2017-11-07T01:00:10.901Z,4.4
2017-11-07T01:01:23.228Z,4.42
2017-11-07T01:02:35.827Z,4.32
2017-11-07T01:03:48.447Z,4.27
2017-11-07T01:05:01.063Z,4.31
2017-11-07T01:06:13.324Z,4.31
2017-11-07T01:07:25.913Z,4.32
2017-11-07T01:08:38.204Z,4.43
2017-11-07T01:09:50.826Z,4.32
2017-11-07T01:11:03.453Z,4.31
2017-11-07T01:12:15.724Z,4.39
2017-11-07T01:13:28.345Z,4.36
2017-11-07T01:14:40.662Z,4.31
2017-11-07T01:15:53.282Z,4.36
2017-11-07T01:17:05.595Z,4.4
2017-11-07T01:18:17.874Z,4.4
2017-11-07T01:19:30.474Z,4.38
2017-11-07T01:20:43.081Z,4.31
2017-11-07T01:21:55.336Z,4.31
2017-11-07T01:23:07.587Z,4.31
2017-11-07T01:24:19.881Z,4.39
2017-11-07T01:25:31.868Z,4.31
2017-11-07T01:26:44.126Z,4.36
2017-11-07T01:27:56.739Z,4.42
2017-11-07T01:29:09.010Z,4.48
2017-11-07T01:30:21.601Z,4.36
2017-11-07T01:31:34.256Z,4.38
2017-11-07T01:32:47.114Z,4.32
2017-11-07T01:33:59.070Z,4.39
2017-11-07T01:35:11.367Z,4.39
2017-11-07T01:36:23.686Z,4.34
2017-11-07T01:37:35.956Z,4.39
2017-11-07T01:38:48.551Z,4.4
2017-11-07T01:40:01.149Z,4.39
2017-11-07T01:41:13.421Z,4.32
2017-11-07T01:42:26.062Z,4.31
2017-11-07T01:43:38.682Z,4.31
2017-11-07T01:44:51.298Z,4.38
2017-11-07T01:46:03.904Z,4.31
2017-11-07T01:47:16.523Z,4.36
2017-11-07T01:48:29.131Z,4.3
2017-11-07T01:49:41.737Z,4.32
2017-11-07T01:50:54.357Z,4.32
2017-11-07T01:52:06.966Z,4.34
2017-11-07T01:53:19.557Z,4.27
2017-11-07T01:54:31.824Z,4.4
2017-11-07T01:55:44.443Z,4.34
2017-11-07T01:56:57.036Z,4.36
2017-11-07T01:58:09.639Z,4.39
2017-11-07T01:59:21.581Z,4.42
2017-11-07T02:00:33.777Z,4.38
2017-11-07T02:01:46.366Z,4.38
2017-11-07T02:02:58.655Z,4.36
2017-11-07T02:04:11.258Z,4.3
2017-11-07T02:05:23.847Z,4.34
2017-11-07T02:06:35.816Z,4.39
2017-11-07T02:07:48.420Z,4.39
2017-11-07T02:09:01.041Z,4.3
2017-11-07T02:10:13.641Z,4.39
2017-11-07T02:11:25.911Z,4.31
2017-11-07T02:12:38.195Z,4.38
2017-11-07T02:13:50.801Z,4.36
2017-11-07T02:15:03.094Z,4.39
2017-11-07T02:16:15.692Z,4.36
2017-11-07T02:17:28.286Z,4.25
2017-11-07T02:18:40.905Z,4.4
2017-11-07T02:19:53.479Z,4.36
2017-11-07T02:21:06.074Z,4.25
2017-11-07T02:22:18.699Z,4.34
2017-11-07T02:23:30.997Z,4.36
2017-11-07T02:24:43.616Z,4.3
2017-11-07T02:25:55.900Z,4.21
2017-11-07T02:27:07.568Z,4.32
2017-11-07T02:28:20.167Z,4.3
2017-11-07T02:29:32.759Z,4.3
2017-11-07T02:30:45.060Z,4.22
2017-11-07T02:31:57.358Z,4.2
2017-11-07T02:33:10.209Z,4.21
2017-11-07T02:34:22.842Z,4.34
2017-11-07T02:35:35.124Z,4.3
2017-11-07T02:36:47.433Z,4.22
2017-11-07T02:38:00.034Z,4.36
2017-11-07T02:39:12.003Z,4.28
2017-11-07T02:40:24.609Z,4.21
2017-11-07T02:41:37.215Z,4.3
2017-11-07T02:42:49.472Z,4.28
2017-11-07T02:44:02.116Z,4.31
2017-11-07T02:45:14.771Z,4.25
2017-11-07T02:46:27.412Z,4.31
2017-11-07T02:47:39.693Z,4.2
2017-11-07T02:48:51.667Z,4.24
2017-11-07T02:50:03.986Z,4.22
2017-11-07T02:51:16.617Z,4.21
2017-11-07T02:52:29.238Z,4.28
2017-11-07T02:53:41.550Z,4.25
2017-11-07T02:54:54.192Z,4.22
2017-11-07T02:56:06.463Z,4.3
2017-11-07T02:57:19.083Z,4.22
2017-11-07T02:58:31.687Z,4.25
2017-11-07T02:59:44.232Z,4.32
2017-11-07T03:00:56.834Z,4.24
2017-11-07T03:02:09.124Z,4.31
2017-11-07T03:03:21.749Z,4.25
2017-11-07T03:04:33.691Z,4.28
2017-11-07T03:05:45.986Z,4.28
2017-11-07T03:06:58.306Z,4.24
2017-11-07T03:08:10.926Z,4.24
2017-11-07T03:09:23.552Z,4.31
2017-11-07T03:10:36.147Z,4.25
2017-11-07T03:11:48.763Z,4.31
2017-11-07T03:13:01.056Z,4.22
2017-11-07T03:14:13.673Z,4.36
2017-11-07T03:15:25.621Z,4.34
2017-11-07T03:16:38.251Z,4.3
2017-11-07T03:17:50.885Z,4.32
2017-11-07T03:19:03.472Z,4.36
2017-11-07T03:20:15.741Z,4.36
2017-11-07T03:21:28.351Z,4.22
2017-11-07T03:22:40.953Z,4.36
2017-11-07T03:23:53.268Z,4.34
2017-11-07T03:25:05.858Z,4.32
2017-11-07T03:26:17.818Z,4.36
2017-11-07T03:27:30.090Z,4.32
2017-11-07T03:28:42.385Z,4.32
2017-11-07T03:29:55.016Z,4.31
2017-11-07T03:31:06.992Z,4.32
2017-11-07T03:32:19.265Z,4.4
2017-11-07T03:33:31.552Z,4.36
2017-11-07T03:34:43.805Z,4.36
2017-11-07T03:35:56.400Z,4.36
2017-11-07T03:37:08.365Z,4.28
2017-11-07T03:38:20.964Z,4.36
2017-11-07T03:39:33.251Z,4.28
2017-11-07T03:40:45.555Z,4.31
2017-11-07T03:41:58.157Z,4.32
2017-11-07T03:43:11.047Z,4.31
2017-11-07T03:44:23.651Z,4.32
2017-11-07T03:45:36.261Z,4.27
2017-11-07T03:46:48.889Z,4.22
2017-11-07T03:48:01.168Z,4.32
2017-11-07T03:49:13.461Z,4.34
2017-11-07T03:50:26.052Z,4.27
2017-11-07T03:51:38.665Z,4.3
2017-11-07T03:52:51.294Z,4.3
2017-11-07T03:54:03.919Z,4.22
2017-11-07T03:55:15.863Z,4.28
2017-11-07T03:56:28.479Z,4.24
2017-11-07T03:57:40.743Z,4.16
2017-11-07T03:58:53.028Z,4.12
2017-11-07T04:00:05.666Z,4.16
2017-11-07T04:01:18.290Z,4.13
2017-11-07T04:02:30.882Z,4.07
2017-11-07T04:03:43.176Z,4.03
2017-11-07T04:04:55.717Z,4.04
2017-11-07T04:06:08.292Z,3.99
2017-11-07T04:07:20.581Z,4.06
2017-11-07T04:08:32.860Z,4.07
2017-11-07T04:09:45.504Z,4.1
2017-11-07T04:10:58.125Z,4.14
2017-11-07T04:12:10.104Z,4.03
2017-11-07T04:13:22.408Z,4.03
2017-11-07T04:14:34.684Z,4
2017-11-07T04:15:46.984Z,3.95
2017-11-07T04:16:59.626Z,3.99
2017-11-07T04:18:12.227Z,4.02
2017-11-07T04:19:24.520Z,3.95
2017-11-07T04:20:37.159Z,3.94
2017-11-07T04:21:49.754Z,4.02
2017-11-07T04:23:02.027Z,3.92
2017-11-07T04:24:14.647Z,3.92
2017-11-07T04:25:27.240Z,3.91
2017-11-07T04:26:39.555Z,3.92
2017-11-07T04:27:52.163Z,3.92
2017-11-07T04:29:04.463Z,3.91
2017-11-07T04:30:16.757Z,3.86
2017-11-07T04:31:29.026Z,3.89
2017-11-07T04:32:41.653Z,3.89
2017-11-07T04:33:53.960Z,3.86
2017-11-07T04:35:06.567Z,3.86
2017-11-07T04:36:18.858Z,3.86
2017-11-07T04:37:31.400Z,3.85
2017-11-07T04:38:44.005Z,3.84
2017-11-07T04:39:56.598Z,3.84
2017-11-07T04:41:09.197Z,3.84
2017-11-07T04:42:21.486Z,3.81
2017-11-07T04:43:34.399Z,3.86
2017-11-07T04:44:46.673Z,3.92
2017-11-07T04:45:59.302Z,3.82
2017-11-07T04:47:10.945Z,3.78
2017-11-07T04:48:23.539Z,3.84
2017-11-07T04:49:36.140Z,3.86
2017-11-07T04:50:48.781Z,3.84
2017-11-07T04:52:01.077Z,3.81
2017-11-07T04:53:13.675Z,3.82
2017-11-07T04:54:26.269Z,3.82
2017-11-07T04:55:38.909Z,3.82
2017-11-07T04:56:51.235Z,3.82
2017-11-07T04:58:03.849Z,3.77
2017-11-07T04:59:16.128Z,3.78
2017-11-07T05:00:28.402Z,3.78
2017-11-07T05:01:40.383Z,3.77
2017-11-07T05:02:52.354Z,3.86
2017-11-07T05:04:04.633Z,3.78
2017-11-07T05:05:17.250Z,3.86
2017-11-07T05:06:29.534Z,3.81
2017-11-07T05:07:42.137Z,3.77
2017-11-07T05:08:54.784Z,3.76
2017-11-07T05:10:06.991Z,3.84
2017-11-07T05:11:19.278Z,3.84
2017-11-07T05:12:31.581Z,3.84
2017-11-07T05:13:43.878Z,3.76
2017-11-07T05:14:55.858Z,3.84
2017-11-07T05:16:08.135Z,3.84
2017-11-07T05:17:20.131Z,3.84
2017-11-07T05:18:32.083Z,3.86
2017-11-07T05:19:44.352Z,3.84
2017-11-07T05:20:56.622Z,3.84
2017-11-07T05:22:09.223Z,3.77
2017-11-07T05:23:21.838Z,3.81
2017-11-07T05:24:34.469Z,3.82
2017-11-07T05:25:47.075Z,3.81
2017-11-07T05:26:59.671Z,3.82
2017-11-07T05:28:11.642Z,3.84
2017-11-07T05:29:23.925Z,3.78
2017-11-07T05:30:36.237Z,3.78
2017-11-07T05:31:48.188Z,3.82
2017-11-07T05:33:00.481Z,3.71
2017-11-07T05:34:12.449Z,3.7
2017-11-07T05:35:24.748Z,3.76
2017-11-07T05:36:37.366Z,3.74
2017-11-07T05:37:49.640Z,3.7
2017-11-07T05:39:01.929Z,3.64
2017-11-07T05:40:14.205Z,3.7
2017-11-07T05:41:26.803Z,3.66
2017-11-07T05:42:39.685Z,3.56
2017-11-07T05:43:51.659Z,3.61
2017-11-07T05:45:03.696Z,3.52
2017-11-07T05:46:16.285Z,3.49
2017-11-07T05:47:28.880Z,3.53
2017-11-07T05:48:41.165Z,3.46
2017-11-07T05:49:53.121Z,3.48
2017-11-07T05:51:05.748Z,3.46
2017-11-07T05:52:18.027Z,3.49
2017-11-07T05:53:30.339Z,3.41
2017-11-07T05:54:42.971Z,3.45
2017-11-07T05:55:55.572Z,3.41
2017-11-07T05:57:07.533Z,3.4
2017-11-07T05:58:20.116Z,3.36
2017-11-07T05:59:32.749Z,3.37
2017-11-07T06:00:44.402Z,3.29
2017-11-07T06:01:57.028Z,3.26
2017-11-07T06:03:09.289Z,3.27
2017-11-07T06:04:21.561Z,3.29
2017-11-07T06:05:33.829Z,3.29
2017-11-07T06:06:46.432Z,3.24
2017-11-07T06:07:59.030Z,3.33
2017-11-07T06:09:11.651Z,3.19
2017-11-07T06:10:24.192Z,3.31
2017-11-07T06:11:36.814Z,3.26
2017-11-07T06:12:49.414Z,3.19
2017-11-07T06:14:02.005Z,3.26
2017-11-07T06:15:14.629Z,3.24
2017-11-07T06:16:26.903Z,3.27
2017-11-07T06:17:39.192Z,3.11
2017-11-07T06:18:51.192Z,3.12
2017-11-07T06:20:03.786Z,3.16
2017-11-07T06:21:15.407Z,3.08
2017-11-07T06:22:28.004Z,3.08
2017-11-07T06:23:40.289Z,3.11
2017-11-07T06:24:52.918Z,3.06
2017-11-07T06:26:05.517Z,3.09
2017-11-07T06:27:17.825Z,3.05
2017-11-07T06:28:29.799Z,2.95
2017-11-07T06:29:42.426Z,3.03
2017-11-07T06:30:55.029Z,3.03
2017-11-07T06:32:07.618Z,2.95
2017-11-07T06:33:20.254Z,2.91
2017-11-07T06:34:32.866Z,2.85
2017-11-07T06:35:45.485Z,2.83
2017-11-07T06:36:57.776Z,2.88
2017-11-07T06:38:10.071Z,2.85
2017-11-07T06:39:22.351Z,2.93
2017-11-07T06:40:34.938Z,2.97
2017-11-07T06:41:47.548Z,2.9
2017-11-07T06:43:00.126Z,2.87
2017-11-07T06:44:12.098Z,2.9
2017-11-07T06:45:24.671Z,2.88
2017-11-07T06:46:36.991Z,2.9
2017-11-07T06:47:49.589Z,2.87
2017-11-07T06:49:02.210Z,2.85
2017-11-07T06:50:14.499Z,2.87
2017-11-07T06:51:27.123Z,2.8
2017-11-07T06:52:39.734Z,2.82
2017-11-07T06:53:52.020Z,2.85
2017-11-07T06:55:04.674Z,2.77
2017-11-07T06:56:16.335Z,2.91
2017-11-07T06:57:28.924Z,2.87
2017-11-07T06:58:41.444Z,2.75
2017-11-07T06:59:54.047Z,2.82
2017-11-07T07:01:05.990Z,2.75
2017-11-07T07:02:18.262Z,2.77
2017-11-07T07:03:30.880Z,2.73
2017-11-07T07:04:43.173Z,2.8
2017-11-07T07:05:55.447Z,2.8
2017-11-07T07:07:08.059Z,2.79
2017-11-07T07:08:20.701Z,2.75
2017-11-07T07:09:33.005Z,2.76
2017-11-07T07:10:45.602Z,2.76
2017-11-07T07:11:58.176Z,2.75
2017-11-07T07:13:10.787Z,2.83
2017-11-07T07:14:23.091Z,2.87
2017-11-07T07:15:34.734Z,2.8
2017-11-07T07:16:47.332Z,2.83
2017-11-07T07:17:59.953Z,2.88
2017-11-07T07:19:12.552Z,2.85
2017-11-07T07:20:25.118Z,2.91
2017-11-07T07:21:37.089Z,2.88
2017-11-07T07:22:49.381Z,2.9
2017-11-07T07:24:01.345Z,2.87
2017-11-07T07:25:13.015Z,2.98
2017-11-07T07:26:24.989Z,2.9
2017-11-07T07:27:37.582Z,2.87
2017-11-07T07:28:49.878Z,2.93
2017-11-07T07:30:02.474Z,2.98
2017-11-07T07:31:14.751Z,2.87
2017-11-07T07:32:26.724Z,2.85
2017-11-07T07:33:39.346Z,2.97
2017-11-07T07:34:51.317Z,2.95
2017-11-07T07:36:03.939Z,2.88
2017-11-07T07:37:16.221Z,2.91
2017-11-07T07:38:28.801Z,3.05
2017-11-07T07:39:41.404Z,3.01
2017-11-07T07:40:54.038Z,3
2017-11-07T07:42:06.638Z,3.09
2017-11-07T07:43:18.582Z,3.09
2017-11-07T07:44:30.857Z,3.11
2017-11-07T07:45:43.500Z,3.06
2017-11-07T07:46:56.142Z,3.15
2017-11-07T07:48:08.421Z,3.18
2017-11-07T07:49:20.389Z,3.27
2017-11-07T07:50:33.008Z,3.18
2017-11-07T07:51:45.280Z,3.21
2017-11-07T07:52:57.882Z,3.26
2017-11-07T07:54:10.150Z,3.27
2017-11-07T07:55:22.763Z,3.34
2017-11-07T07:56:35.038Z,3.31
2017-11-07T07:57:47.641Z,3.29
2017-11-07T07:59:00.180Z,3.4
2017-11-07T08:00:12.475Z,3.37
2017-11-07T08:01:24.111Z,3.46
2017-11-07T08:02:36.393Z,3.46
2017-11-07T08:03:48.986Z,3.52
2017-11-07T08:05:00.944Z,3.55
2017-11-07T08:06:12.900Z,3.68
2017-11-07T08:07:25.188Z,3.71
2017-11-07T08:08:37.772Z,3.71
2017-11-07T08:09:50.366Z,3.81
2017-11-07T08:11:02.636Z,3.77
2017-11-07T08:12:14.924Z,3.82
2017-11-07T08:13:27.217Z,3.91
2017-11-07T08:14:39.497Z,3.92
2017-11-07T08:15:51.790Z,4.03
2017-11-07T08:17:04.364Z,4.07
2017-11-07T08:18:16.961Z,4.02
2017-11-07T08:19:29.585Z,4.14
2017-11-07T08:20:42.126Z,4.14
2017-11-07T08:21:54.744Z,4.27
2017-11-07T08:23:06.717Z,4.27
2017-11-07T08:24:19.027Z,4.3
2017-11-07T08:25:31.608Z,4.25
2017-11-07T08:26:43.905Z,4.22
2017-11-07T08:27:56.200Z,4.28
2017-11-07T08:29:08.492Z,4.42
2017-11-07T08:30:20.791Z,4.39
2017-11-07T08:31:33.459Z,4.4
2017-11-07T08:32:46.079Z,4.43
2017-11-07T08:33:58.654Z,4.46
2017-11-07T08:35:11.246Z,4.5
2017-11-07T08:36:23.533Z,4.49
2017-11-07T08:37:36.154Z,4.53
2017-11-07T08:38:47.779Z,4.56
2017-11-07T08:39:59.757Z,4.64
2017-11-07T08:41:12.054Z,4.58
2017-11-07T08:42:24.362Z,4.58
2017-11-07T08:43:36.319Z,4.76
2017-11-07T08:44:48.585Z,4.74
2017-11-07T08:46:00.874Z,4.75
2017-11-07T08:47:13.502Z,4.79
2017-11-07T08:48:25.774Z,4.89
2017-11-07T08:49:38.364Z,4.9
2017-11-07T08:50:50.338Z,4.97
2017-11-07T08:52:02.936Z,4.92
2017-11-07T08:53:15.559Z,4.94
2017-11-07T08:54:28.153Z,4.97
2017-11-07T08:55:40.764Z,4.94
2017-11-07T08:56:53.368Z,5.12
2017-11-07T08:58:06.230Z,5.07
2017-11-07T08:59:18.185Z,5.13
2017-11-07T09:00:30.485Z,5.13
2017-11-07T09:01:43.079Z,5.2
2017-11-07T09:02:55.050Z,5.22
2017-11-07T09:04:07.021Z,5.25
2017-11-07T09:05:19.289Z,5.26
2017-11-07T09:06:31.903Z,5.31
2017-11-07T09:07:44.530Z,5.33
2017-11-07T09:08:56.828Z,5.37
2017-11-07T09:10:09.099Z,5.38
2017-11-07T09:11:21.082Z,5.46
2017-11-07T09:12:33.387Z,5.46
2017-11-07T09:13:45.380Z,5.56
2017-11-07T09:14:57.978Z,5.62
2017-11-07T09:16:10.267Z,5.51
2017-11-07T09:17:22.874Z,5.47
2017-11-07T09:18:35.171Z,5.56
2017-11-07T09:19:47.778Z,5.65
2017-11-07T09:21:00.376Z,5.67
2017-11-07T09:22:12.997Z,5.58
2017-11-07T09:23:25.596Z,5.58
2017-11-07T09:24:38.218Z,5.62
2017-11-07T09:25:50.808Z,5.61
2017-11-07T09:27:03.104Z,5.69
2017-11-07T09:28:15.396Z,5.7
2017-11-07T09:29:27.346Z,5.73
2017-11-07T09:30:39.977Z,5.62
2017-11-07T09:31:52.569Z,5.72
2017-11-07T09:33:05.208Z,5.69
2017-11-07T09:34:17.811Z,5.72
2017-11-07T09:35:30.405Z,5.77
2017-11-07T09:36:42.992Z,5.79
2017-11-07T09:37:55.594Z,5.77
2017-11-07T09:39:08.215Z,5.77
2017-11-07T09:40:20.514Z,5.88
2017-11-07T09:41:33.124Z,5.83
2017-11-07T09:42:45.726Z,5.84
2017-11-07T09:43:58.329Z,5.92
2017-11-07T09:45:10.949Z,5.9
2017-11-07T09:46:23.570Z,5.98
2017-11-07T09:47:35.854Z,6.02
